sensor_id;sensor_type;location;lat;lon;timestamp;temperature;humidity
23371;DHT22;11858;51.056;3.712;2022-12-24T00:02:18;11.40;99.90
23371;DHT22;11858;51.056;3.712;2022-12-24T00:04:44;11.50;99.90
23371;DHT22;11858;51.056;3.712;2022-12-24T00:07:10;11.40;99.90
23371;DHT22;11858;51.056;3.712;2022-12-24T00:09:35;11.50;99.90
23371;DHT22;11858;51.056;3.712;2022-12-24T00:12:01;11.40;99.90
23371;DHT22;11858;51.056;3.712;2022-12-24T00:14:27;11.40;99.90
23371;DHT22;11858;51.056;3.712;2022-12-24T00:16:53;11.50;99.90
23371;DHT22;11858;51.056;3.712;2022-12-24T00:19:18;11.60;99.90
23371;DHT22;11858;51.056;3.712;2022-12-24T00:21:44;11.60;99.90
23371;DHT22;11858;51.056;3.712;2022-12-24T00:24:10;11.50;99.90
23371;DHT22;11858;51.056;3.712;2022-12-24T00:26:35;11.60;99.90
23371;DHT22;11858;51.056;3.712;2022-12-24T00:29:01;11.60;99.90
23371;DHT22;11858;51.056;3.712;2022-12-24T00:31:27;11.60;99.90
23371;DHT22;11858;51.056;3.712;2022-12-24T00:33:53;11.70;99.90
23371;DHT22;11858;51.056;3.712;2022-12-24T00:36:19;11.80;99.90
23371;DHT22;11858;51.056;3.712;2022-12-24T00:38:45;11.70;99.90
23371;DHT22;11858;51.056;3.712;2022-12-24T00:41:12;11.60;99.90
23371;DHT22;11858;51.056;3.712;2022-12-24T00:43:58;11.70;99.90
23371;DHT22;11858;51.056;3.712;2022-12-24T00:46:25;11.50;99.90
23371;DHT22;11858;51.056;3.712;2022-12-24T00:48:51;11.30;99.90
23371;DHT22;11858;51.056;3.712;2022-12-24T00:51:18;11.20;99.90
23371;DHT22;11858;51.056;3.712;2022-12-24T00:53:44;11.20;99.90
23371;DHT22;11858;51.056;3.712;2022-12-24T00:56:10;11.20;99.90
23371;DHT22;11858;51.056;3.712;2022-12-24T00:58:36;11.20;99.90
23371;DHT22;11858;51.056;3.712;2022-12-24T01:01:02;11.20;99.90
23371;DHT22;11858;51.056;3.712;2022-12-24T01:03:29;11.20;99.90
23371;DHT22;11858;51.056;3.712;2022-12-24T01:06:07;11.20;99.90
23371;DHT22;11858;51.056;3.712;2022-12-24T01:08:33;11.20;99.90
23371;DHT22;11858;51.056;3.712;2022-12-24T01:11:00;11.20;99.90
23371;DHT22;11858;51.056;3.712;2022-12-24T01:13:26;11.10;99.90
23371;DHT22;11858;51.056;3.712;2022-12-24T01:15:52;11.20;99.90
23371;DHT22;11858;51.056;3.712;2022-12-24T01:18:18;11.20;99.90
23371;DHT22;11858;51.056;3.712;2022-12-24T01:20:44;11.10;99.90
23371;DHT22;11858;51.056;3.712;2022-12-24T01:23:10;11.10;99.90
23371;DHT22;11858;51.056;3.712;2022-12-24T01:25:37;11.10;99.90
23371;DHT22;11858;51.056;3.712;2022-12-24T01:28:04;11.00;99.90
23371;DHT22;11858;51.056;3.712;2022-12-24T01:30:29;11.10;99.90
23371;DHT22;11858;51.056;3.712;2022-12-24T01:32:56;11.00;99.90
23371;DHT22;11858;51.056;3.712;2022-12-24T01:35:22;11.10;99.90
23371;DHT22;11858;51.056;3.712;2022-12-24T01:37:47;11.00;99.90
23371;DHT22;11858;51.056;3.712;2022-12-24T01:40:15;11.00;99.90
23371;DHT22;11858;51.056;3.712;2022-12-24T01:42:59;11.10;99.90
23371;DHT22;11858;51.056;3.712;2022-12-24T01:45:55;11.10;99.90
23371;DHT22;11858;51.056;3.712;2022-12-24T01:48:49;11.10;99.90
23371;DHT22;11858;51.056;3.712;2022-12-24T01:51:38;11.10;99.90
23371;DHT22;11858;51.056;3.712;2022-12-24T01:54:09;11.10;99.90
23371;DHT22;11858;51.056;3.712;2022-12-24T01:56:39;11.00;99.90
23371;DHT22;11858;51.056;3.712;2022-12-24T01:59:11;11.00;99.90
23371;DHT22;11858;51.056;3.712;2022-12-24T02:01:38;11.00;99.90
23371;DHT22;11858;51.056;3.712;2022-12-24T02:04:29;11.10;99.90
23371;DHT22;11858;51.056;3.712;2022-12-24T02:06:52;11.10;99.90
23371;DHT22;11858;51.056;3.712;2022-12-24T02:09:18;11.10;99.90
23371;DHT22;11858;51.056;3.712;2022-12-24T02:11:45;11.10;99.90
23371;DHT22;11858;51.056;3.712;2022-12-24T02:14:12;11.10;99.90
23371;DHT22;11858;51.056;3.712;2022-12-24T02:22:31;11.20;99.90
23371;DHT22;11858;51.056;3.712;2022-12-24T02:25:34;11.20;99.90
23371;DHT22;11858;51.056;3.712;2022-12-24T02:31:07;11.20;99.90
23371;DHT22;11858;51.056;3.712;2022-12-24T02:33:46;11.20;99.90
23371;DHT22;11858;51.056;3.712;2022-12-24T02:39:02;11.20;99.90
23371;DHT22;11858;51.056;3.712;2022-12-24T02:41:40;11.20;99.90
23371;DHT22;11858;51.056;3.712;2022-12-24T02:44:27;11.10;99.90
23371;DHT22;11858;51.056;3.712;2022-12-24T02:46:56;11.10;99.90
23371;DHT22;11858;51.056;3.712;2022-12-24T02:49:22;11.10;99.90
23371;DHT22;11858;51.056;3.712;2022-12-24T02:51:48;11.10;99.90
23371;DHT22;11858;51.056;3.712;2022-12-24T02:54:14;11.00;99.90
23371;DHT22;11858;51.056;3.712;2022-12-24T02:56:52;11.00;99.90
23371;DHT22;11858;51.056;3.712;2022-12-24T02:59:25;11.00;99.90
23371;DHT22;11858;51.056;3.712;2022-12-24T03:04:36;11.00;99.90
23371;DHT22;11858;51.056;3.712;2022-12-24T03:07:27;11.00;99.90
23371;DHT22;11858;51.056;3.712;2022-12-24T03:10:23;10.90;99.90
23371;DHT22;11858;51.056;3.712;2022-12-24T03:12:56;10.90;99.90
23371;DHT22;11858;51.056;3.712;2022-12-24T03:15:25;10.90;99.90
23371;DHT22;11858;51.056;3.712;2022-12-24T03:17:53;10.90;99.90
23371;DHT22;11858;51.056;3.712;2022-12-24T03:20:29;10.90;99.90
23371;DHT22;11858;51.056;3.712;2022-12-24T03:22:57;10.90;99.90
23371;DHT22;11858;51.056;3.712;2022-12-24T03:25:24;10.90;99.90
23371;DHT22;11858;51.056;3.712;2022-12-24T03:27:51;10.90;99.90
23371;DHT22;11858;51.056;3.712;2022-12-24T03:30:17;10.90;99.90
23371;DHT22;11858;51.056;3.712;2022-12-24T03:32:43;10.80;99.90
23371;DHT22;11858;51.056;3.712;2022-12-24T03:35:09;10.70;99.90
23371;DHT22;11858;51.056;3.712;2022-12-24T03:37:36;10.80;99.90
23371;DHT22;11858;51.056;3.712;2022-12-24T03:40:02;10.70;99.90
23371;DHT22;11858;51.056;3.712;2022-12-24T03:42:28;10.70;99.90
23371;DHT22;11858;51.056;3.712;2022-12-24T03:44:53;10.70;99.90
23371;DHT22;11858;51.056;3.712;2022-12-24T03:47:19;10.80;99.90
23371;DHT22;11858;51.056;3.712;2022-12-24T03:49:44;10.80;99.90
23371;DHT22;11858;51.056;3.712;2022-12-24T03:52:10;10.90;99.90
23371;DHT22;11858;51.056;3.712;2022-12-24T03:54:36;10.90;99.90
23371;DHT22;11858;51.056;3.712;2022-12-24T03:57:01;10.90;99.90
23371;DHT22;11858;51.056;3.712;2022-12-24T03:59:27;11.00;99.90
23371;DHT22;11858;51.056;3.712;2022-12-24T04:01:53;10.90;99.90
23371;DHT22;11858;51.056;3.712;2022-12-24T04:04:18;10.90;99.90
23371;DHT22;11858;51.056;3.712;2022-12-24T04:06:44;11.00;99.90
23371;DHT22;11858;51.056;3.712;2022-12-24T04:09:10;11.00;99.90
23371;DHT22;11858;51.056;3.712;2022-12-24T04:11:36;11.00;99.90
23371;DHT22;11858;51.056;3.712;2022-12-24T04:14:01;11.00;99.90
23371;DHT22;11858;51.056;3.712;2022-12-24T04:16:27;10.90;99.90
23371;DHT22;11858;51.056;3.712;2022-12-24T04:18:53;10.90;99.90
23371;DHT22;11858;51.056;3.712;2022-12-24T04:21:18;10.90;99.90
23371;DHT22;11858;51.056;3.712;2022-12-24T04:23:44;10.80;99.90
23371;DHT22;11858;51.056;3.712;2022-12-24T04:26:11;10.90;99.90
23371;DHT22;11858;51.056;3.712;2022-12-24T04:28:38;10.70;99.90
23371;DHT22;11858;51.056;3.712;2022-12-24T04:31:06;10.80;99.90
23371;DHT22;11858;51.056;3.712;2022-12-24T04:33:33;10.70;99.90
23371;DHT22;11858;51.056;3.712;2022-12-24T04:36:00;10.60;99.90
23371;DHT22;11858;51.056;3.712;2022-12-24T04:38:26;10.60;99.90
23371;DHT22;11858;51.056;3.712;2022-12-24T04:41:03;10.60;99.90
23371;DHT22;11858;51.056;3.712;2022-12-24T04:43:30;10.60;99.90
23371;DHT22;11858;51.056;3.712;2022-12-24T04:46:02;10.70;99.90
23371;DHT22;11858;51.056;3.712;2022-12-24T04:48:28;10.60;99.90
23371;DHT22;11858;51.056;3.712;2022-12-24T04:50:54;10.70;99.90
23371;DHT22;11858;51.056;3.712;2022-12-24T04:53:19;10.80;99.90
23371;DHT22;11858;51.056;3.712;2022-12-24T04:55:45;10.80;99.90
23371;DHT22;11858;51.056;3.712;2022-12-24T04:58:12;10.70;99.90
23371;DHT22;11858;51.056;3.712;2022-12-24T05:00:39;10.80;99.90
23371;DHT22;11858;51.056;3.712;2022-12-24T05:03:05;10.90;99.90
23371;DHT22;11858;51.056;3.712;2022-12-24T05:05:30;10.80;99.90
23371;DHT22;11858;51.056;3.712;2022-12-24T05:07:56;10.90;99.90
23371;DHT22;11858;51.056;3.712;2022-12-24T05:10:22;10.90;99.90
23371;DHT22;11858;51.056;3.712;2022-12-24T05:12:48;10.80;99.90
23371;DHT22;11858;51.056;3.712;2022-12-24T05:15:13;10.80;99.90
23371;DHT22;11858;51.056;3.712;2022-12-24T05:17:39;10.80;99.90
23371;DHT22;11858;51.056;3.712;2022-12-24T05:20:05;10.90;99.90
23371;DHT22;11858;51.056;3.712;2022-12-24T05:22:31;10.90;99.90
23371;DHT22;11858;51.056;3.712;2022-12-24T05:25:15;10.90;99.90
23371;DHT22;11858;51.056;3.712;2022-12-24T05:28:03;10.90;99.90
23371;DHT22;11858;51.056;3.712;2022-12-24T05:30:28;10.90;99.90
23371;DHT22;11858;51.056;3.712;2022-12-24T05:32:54;10.90;99.90
23371;DHT22;11858;51.056;3.712;2022-12-24T05:35:20;11.00;99.90
23371;DHT22;11858;51.056;3.712;2022-12-24T05:37:45;11.10;99.90
23371;DHT22;11858;51.056;3.712;2022-12-24T05:40:11;11.00;99.90
23371;DHT22;11858;51.056;3.712;2022-12-24T05:42:38;11.00;99.90
23371;DHT22;11858;51.056;3.712;2022-12-24T05:45:04;11.00;99.90
23371;DHT22;11858;51.056;3.712;2022-12-24T05:47:29;11.00;99.90
23371;DHT22;11858;51.056;3.712;2022-12-24T05:49:55;11.10;99.90
23371;DHT22;11858;51.056;3.712;2022-12-24T05:52:21;11.00;99.90
23371;DHT22;11858;51.056;3.712;2022-12-24T05:54:46;11.00;99.90
23371;DHT22;11858;51.056;3.712;2022-12-24T05:57:12;11.00;99.90
23371;DHT22;11858;51.056;3.712;2022-12-24T05:59:38;11.00;99.90
23371;DHT22;11858;51.056;3.712;2022-12-24T06:02:04;11.00;99.90
23371;DHT22;11858;51.056;3.712;2022-12-24T06:04:29;11.00;99.90
23371;DHT22;11858;51.056;3.712;2022-12-24T06:06:55;11.00;99.90
23371;DHT22;11858;51.056;3.712;2022-12-24T06:09:21;11.10;99.90
23371;DHT22;11858;51.056;3.712;2022-12-24T06:11:46;11.10;99.90
23371;DHT22;11858;51.056;3.712;2022-12-24T06:14:12;11.20;99.90
23371;DHT22;11858;51.056;3.712;2022-12-24T06:16:38;11.10;99.90
23371;DHT22;11858;51.056;3.712;2022-12-24T06:19:03;11.00;99.90
23371;DHT22;11858;51.056;3.712;2022-12-24T06:21:29;10.90;99.90
23371;DHT22;11858;51.056;3.712;2022-12-24T06:23:55;10.90;99.90
23371;DHT22;11858;51.056;3.712;2022-12-24T06:26:22;10.90;99.90
23371;DHT22;11858;51.056;3.712;2022-12-24T06:28:48;11.00;99.90
23371;DHT22;11858;51.056;3.712;2022-12-24T06:31:16;10.90;99.90
23371;DHT22;11858;51.056;3.712;2022-12-24T06:33:43;10.90;99.90
23371;DHT22;11858;51.056;3.712;2022-12-24T06:36:14;10.80;99.90
23371;DHT22;11858;51.056;3.712;2022-12-24T06:38:40;10.80;99.90
23371;DHT22;11858;51.056;3.712;2022-12-24T06:41:06;10.90;99.90
23371;DHT22;11858;51.056;3.712;2022-12-24T06:43:33;11.00;99.90
23371;DHT22;11858;51.056;3.712;2022-12-24T06:46:00;10.90;99.90
23371;DHT22;11858;51.056;3.712;2022-12-24T06:48:27;10.80;99.90
23371;DHT22;11858;51.056;3.712;2022-12-24T06:50:53;10.70;99.90
23371;DHT22;11858;51.056;3.712;2022-12-24T06:53:19;10.80;99.90
23371;DHT22;11858;51.056;3.712;2022-12-24T06:55:44;10.80;99.90
23371;DHT22;11858;51.056;3.712;2022-12-24T06:58:11;10.60;99.90
23371;DHT22;11858;51.056;3.712;2022-12-24T07:00:37;10.70;99.90
23371;DHT22;11858;51.056;3.712;2022-12-24T07:03:03;10.70;99.90
23371;DHT22;11858;51.056;3.712;2022-12-24T07:05:29;10.80;99.90
23371;DHT22;11858;51.056;3.712;2022-12-24T07:07:55;10.80;99.90
23371;DHT22;11858;51.056;3.712;2022-12-24T07:10:21;10.70;99.90
23371;DHT22;11858;51.056;3.712;2022-12-24T07:12:47;10.60;99.90
23371;DHT22;11858;51.056;3.712;2022-12-24T07:15:13;10.70;99.90
23371;DHT22;11858;51.056;3.712;2022-12-24T07:17:39;10.70;99.90
23371;DHT22;11858;51.056;3.712;2022-12-24T07:20:06;10.70;99.90
23371;DHT22;11858;51.056;3.712;2022-12-24T07:22:32;10.70;99.90
23371;DHT22;11858;51.056;3.712;2022-12-24T07:24:58;10.80;99.90
23371;DHT22;11858;51.056;3.712;2022-12-24T07:27:23;10.80;99.90
23371;DHT22;11858;51.056;3.712;2022-12-24T07:29:49;10.80;99.90
23371;DHT22;11858;51.056;3.712;2022-12-24T07:32:15;10.70;99.90
23371;DHT22;11858;51.056;3.712;2022-12-24T07:34:40;10.70;99.90
23371;DHT22;11858;51.056;3.712;2022-12-24T07:37:07;10.70;99.90
23371;DHT22;11858;51.056;3.712;2022-12-24T07:39:32;10.70;99.90
23371;DHT22;11858;51.056;3.712;2022-12-24T07:41:58;10.70;99.90
23371;DHT22;11858;51.056;3.712;2022-12-24T07:44:24;10.70;99.90
23371;DHT22;11858;51.056;3.712;2022-12-24T07:46:49;10.60;99.90
23371;DHT22;11858;51.056;3.712;2022-12-24T07:49:15;10.60;99.90
23371;DHT22;11858;51.056;3.712;2022-12-24T07:51:41;10.70;99.90
23371;DHT22;11858;51.056;3.712;2022-12-24T07:54:07;10.70;99.90
23371;DHT22;11858;51.056;3.712;2022-12-24T07:56:32;10.70;99.90
23371;DHT22;11858;51.056;3.712;2022-12-24T07:58:58;10.70;99.90
23371;DHT22;11858;51.056;3.712;2022-12-24T08:01:24;10.90;99.90
23371;DHT22;11858;51.056;3.712;2022-12-24T08:03:50;11.00;99.90
23371;DHT22;11858;51.056;3.712;2022-12-24T08:06:19;10.90;99.90
23371;DHT22;11858;51.056;3.712;2022-12-24T08:08:45;10.90;99.90
23371;DHT22;11858;51.056;3.712;2022-12-24T08:11:11;10.80;99.90
23371;DHT22;11858;51.056;3.712;2022-12-24T08:13:37;10.80;99.90
23371;DHT22;11858;51.056;3.712;2022-12-24T08:16:03;10.80;99.90
23371;DHT22;11858;51.056;3.712;2022-12-24T08:18:29;11.00;99.90
23371;DHT22;11858;51.056;3.712;2022-12-24T08:20:55;11.10;99.90
23371;DHT22;11858;51.056;3.712;2022-12-24T08:23:20;11.20;99.90
23371;DHT22;11858;51.056;3.712;2022-12-24T08:25:47;11.10;99.90
23371;DHT22;11858;51.056;3.712;2022-12-24T08:28:15;11.10;99.90
23371;DHT22;11858;51.056;3.712;2022-12-24T08:30:42;11.20;99.90
23371;DHT22;11858;51.056;3.712;2022-12-24T08:33:08;11.10;99.90
23371;DHT22;11858;51.056;3.712;2022-12-24T08:35:34;11.10;99.90
23371;DHT22;11858;51.056;3.712;2022-12-24T08:38:00;11.10;99.90
23371;DHT22;11858;51.056;3.712;2022-12-24T08:40:26;11.10;99.90
23371;DHT22;11858;51.056;3.712;2022-12-24T08:42:52;11.10;99.90
23371;DHT22;11858;51.056;3.712;2022-12-24T08:45:18;11.10;99.90
23371;DHT22;11858;51.056;3.712;2022-12-24T08:47:43;11.20;99.90
23371;DHT22;11858;51.056;3.712;2022-12-24T08:50:10;11.10;99.90
23371;DHT22;11858;51.056;3.712;2022-12-24T08:52:36;11.20;99.90
23371;DHT22;11858;51.056;3.712;2022-12-24T08:55:02;11.10;99.90
23371;DHT22;11858;51.056;3.712;2022-12-24T08:57:28;11.10;99.90
23371;DHT22;11858;51.056;3.712;2022-12-24T08:59:54;11.20;99.90
23371;DHT22;11858;51.056;3.712;2022-12-24T09:02:20;11.20;99.90
23371;DHT22;11858;51.056;3.712;2022-12-24T09:04:46;11.20;99.90
23371;DHT22;11858;51.056;3.712;2022-12-24T09:07:11;11.30;99.90
23371;DHT22;11858;51.056;3.712;2022-12-24T09:09:37;11.30;99.90
23371;DHT22;11858;51.056;3.712;2022-12-24T09:12:04;11.30;99.90
23371;DHT22;11858;51.056;3.712;2022-12-24T09:14:30;11.30;99.90
23371;DHT22;11858;51.056;3.712;2022-12-24T09:16:56;11.40;99.90
23371;DHT22;11858;51.056;3.712;2022-12-24T09:19:21;11.50;99.90
23371;DHT22;11858;51.056;3.712;2022-12-24T09:21:47;11.60;99.90
23371;DHT22;11858;51.056;3.712;2022-12-24T09:24:13;11.60;99.90
23371;DHT22;11858;51.056;3.712;2022-12-24T09:26:40;11.60;99.90
23371;DHT22;11858;51.056;3.712;2022-12-24T09:29:06;11.70;99.90
23371;DHT22;11858;51.056;3.712;2022-12-24T09:31:31;11.80;99.90
23371;DHT22;11858;51.056;3.712;2022-12-24T09:33:57;11.70;99.90
23371;DHT22;11858;51.056;3.712;2022-12-24T09:36:23;11.70;99.90
23371;DHT22;11858;51.056;3.712;2022-12-24T09:38:49;11.80;99.90
23371;DHT22;11858;51.056;3.712;2022-12-24T09:43:52;11.80;99.90
23371;DHT22;11858;51.056;3.712;2022-12-24T09:46:35;11.80;99.90
23371;DHT22;11858;51.056;3.712;2022-12-24T09:49:05;11.80;99.90
23371;DHT22;11858;51.056;3.712;2022-12-24T09:52:00;11.70;99.90
23371;DHT22;11858;51.056;3.712;2022-12-24T09:54:36;11.70;99.90
23371;DHT22;11858;51.056;3.712;2022-12-24T09:57:31;11.80;99.90
23371;DHT22;11858;51.056;3.712;2022-12-24T10:00:00;11.90;99.90
23371;DHT22;11858;51.056;3.712;2022-12-24T10:02:26;11.90;99.90
23371;DHT22;11858;51.056;3.712;2022-12-24T10:04:53;12.00;99.90
23371;DHT22;11858;51.056;3.712;2022-12-24T10:12:55;12.00;99.90
23371;DHT22;11858;51.056;3.712;2022-12-24T10:15:36;12.40;99.90
23371;DHT22;11858;51.056;3.712;2022-12-24T10:20:51;13.40;99.90
23371;DHT22;11858;51.056;3.712;2022-12-24T10:26:22;13.40;99.90
23371;DHT22;11858;51.056;3.712;2022-12-24T10:28:55;13.10;99.90
23371;DHT22;11858;51.056;3.712;2022-12-24T10:31:28;12.90;99.90
23371;DHT22;11858;51.056;3.712;2022-12-24T10:34:19;12.90;99.90
23371;DHT22;11858;51.056;3.712;2022-12-24T10:36:46;13.30;99.90
23371;DHT22;11858;51.056;3.712;2022-12-24T10:39:22;13.30;99.90
23371;DHT22;11858;51.056;3.712;2022-12-24T10:41:50;13.30;99.90
23371;DHT22;11858;51.056;3.712;2022-12-24T10:44:20;13.60;99.90
23371;DHT22;11858;51.056;3.712;2022-12-24T10:46:47;13.90;99.90
23371;DHT22;11858;51.056;3.712;2022-12-24T10:49:59;13.80;99.90
23371;DHT22;11858;51.056;3.712;2022-12-24T10:52:05;14.00;99.90
23371;DHT22;11858;51.056;3.712;2022-12-24T10:54:35;14.20;99.90
23371;DHT22;11858;51.056;3.712;2022-12-24T10:57:05;14.00;99.90
23371;DHT22;11858;51.056;3.712;2022-12-24T11:00:04;13.90;99.90
23371;DHT22;11858;51.056;3.712;2022-12-24T11:02:34;13.80;99.90
23371;DHT22;11858;51.056;3.712;2022-12-24T11:05:02;13.70;99.90
23371;DHT22;11858;51.056;3.712;2022-12-24T11:07:29;13.50;99.90
23371;DHT22;11858;51.056;3.712;2022-12-24T11:10:01;13.30;99.90
23371;DHT22;11858;51.056;3.712;2022-12-24T11:12:38;13.10;99.90
23371;DHT22;11858;51.056;3.712;2022-12-24T11:15:34;13.00;99.90
23371;DHT22;11858;51.056;3.712;2022-12-24T11:18:04;12.80;99.90
23371;DHT22;11858;51.056;3.712;2022-12-24T11:20:37;12.60;99.90
23371;DHT22;11858;51.056;3.712;2022-12-24T11:23:03;12.60;99.90
23371;DHT22;11858;51.056;3.712;2022-12-24T11:25:33;12.50;99.90
23371;DHT22;11858;51.056;3.712;2022-12-24T11:28:13;12.50;99.90
23371;DHT22;11858;51.056;3.712;2022-12-24T11:31:04;12.70;99.90
23371;DHT22;11858;51.056;3.712;2022-12-24T11:33:30;13.00;99.90
23371;DHT22;11858;51.056;3.712;2022-12-24T11:36:01;13.00;99.90
23371;DHT22;11858;51.056;3.712;2022-12-24T11:38:29;13.20;99.90
23371;DHT22;11858;51.056;3.712;2022-12-24T11:43:24;13.70;99.90
23371;DHT22;11858;51.056;3.712;2022-12-24T11:45:51;14.10;99.90
23371;DHT22;11858;51.056;3.712;2022-12-24T11:48:29;14.50;99.90
23371;DHT22;11858;51.056;3.712;2022-12-24T11:51:03;14.80;99.90
23371;DHT22;11858;51.056;3.712;2022-12-24T11:56:34;14.60;99.90
23371;DHT22;11858;51.056;3.712;2022-12-24T11:59:27;14.80;99.90
23371;DHT22;11858;51.056;3.712;2022-12-24T12:04:43;15.30;99.90
23371;DHT22;11858;51.056;3.712;2022-12-24T12:07:17;14.90;99.90
23371;DHT22;11858;51.056;3.712;2022-12-24T12:09:48;14.90;99.90
23371;DHT22;11858;51.056;3.712;2022-12-24T12:12:26;15.00;99.90
23371;DHT22;11858;51.056;3.712;2022-12-24T12:14:54;14.90;99.90
23371;DHT22;11858;51.056;3.712;2022-12-24T12:20:01;14.70;99.90
23371;DHT22;11858;51.056;3.712;2022-12-24T12:25:29;14.60;99.90
23371;DHT22;11858;51.056;3.712;2022-12-24T12:27:56;14.40;99.90
23371;DHT22;11858;51.056;3.712;2022-12-24T12:30:23;14.50;99.90
23371;DHT22;11858;51.056;3.712;2022-12-24T12:33:22;14.60;99.90
23371;DHT22;11858;51.056;3.712;2022-12-24T12:35:50;14.80;99.90
23371;DHT22;11858;51.056;3.712;2022-12-24T12:38:21;14.80;99.90
23371;DHT22;11858;51.056;3.712;2022-12-24T12:51:35;13.90;99.90
23371;DHT22;11858;51.056;3.712;2022-12-24T12:57:17;13.50;99.90
23371;DHT22;11858;51.056;3.712;2022-12-24T13:00:08;13.60;99.90
23371;DHT22;11858;51.056;3.712;2022-12-24T13:02:44;13.70;99.90
23371;DHT22;11858;51.056;3.712;2022-12-24T13:20:13;14.00;99.90
23371;DHT22;11858;51.056;3.712;2022-12-24T13:23:16;13.90;99.90
23371;DHT22;11858;51.056;3.712;2022-12-24T13:25:45;14.10;99.90
23371;DHT22;11858;51.056;3.712;2022-12-24T13:30:40;14.10;99.90
23371;DHT22;11858;51.056;3.712;2022-12-24T13:33:11;14.10;99.90
23371;DHT22;11858;51.056;3.712;2022-12-24T13:35:56;14.30;99.90
23371;DHT22;11858;51.056;3.712;2022-12-24T13:40:52;14.60;99.90
23371;DHT22;11858;51.056;3.712;2022-12-24T13:43:18;14.80;99.90
23371;DHT22;11858;51.056;3.712;2022-12-24T13:45:49;14.50;99.90
23371;DHT22;11858;51.056;3.712;2022-12-24T13:50:47;13.90;99.90
23371;DHT22;11858;51.056;3.712;2022-12-24T13:56:41;13.70;99.90
23371;DHT22;11858;51.056;3.712;2022-12-24T13:58:49;13.90;99.90
23371;DHT22;11858;51.056;3.712;2022-12-24T14:01:33;13.90;99.90
23371;DHT22;11858;51.056;3.712;2022-12-24T14:04:02;13.90;99.90
23371;DHT22;11858;51.056;3.712;2022-12-24T14:06:38;14.00;99.90
23371;DHT22;11858;51.056;3.712;2022-12-24T14:09:08;14.00;99.90
23371;DHT22;11858;51.056;3.712;2022-12-24T14:14:30;14.10;99.90
23371;DHT22;11858;51.056;3.712;2022-12-24T14:19:45;13.80;99.90
23371;DHT22;11858;51.056;3.712;2022-12-24T14:22:35;13.60;99.90
23371;DHT22;11858;51.056;3.712;2022-12-24T14:25:08;13.70;99.90
23371;DHT22;11858;51.056;3.712;2022-12-24T14:27:52;14.00;99.90
23371;DHT22;11858;51.056;3.712;2022-12-24T14:30:24;14.00;99.90
23371;DHT22;11858;51.056;3.712;2022-12-24T14:32:51;13.80;99.90
23371;DHT22;11858;51.056;3.712;2022-12-24T14:35:23;13.50;99.90
23371;DHT22;11858;51.056;3.712;2022-12-24T14:38:13;13.30;99.90
23371;DHT22;11858;51.056;3.712;2022-12-24T14:46:40;13.10;99.90
23371;DHT22;11858;51.056;3.712;2022-12-24T14:49:37;13.20;99.90
23371;DHT22;11858;51.056;3.712;2022-12-24T14:52:37;13.10;99.90
23371;DHT22;11858;51.056;3.712;2022-12-24T14:55:34;12.90;99.90
23371;DHT22;11858;51.056;3.712;2022-12-24T15:00:44;13.10;99.90
23371;DHT22;11858;51.056;3.712;2022-12-24T15:03:14;13.00;99.90
23371;DHT22;11858;51.056;3.712;2022-12-24T15:05:41;12.80;99.90
23371;DHT22;11858;51.056;3.712;2022-12-24T15:08:11;12.80;99.90
23371;DHT22;11858;51.056;3.712;2022-12-24T15:10:42;12.80;99.90
23371;DHT22;11858;51.056;3.712;2022-12-24T15:15:42;12.70;99.90
23371;DHT22;11858;51.056;3.712;2022-12-24T15:18:15;12.60;99.90
23371;DHT22;11858;51.056;3.712;2022-12-24T15:20:47;12.60;99.90
23371;DHT22;11858;51.056;3.712;2022-12-24T15:23:31;12.50;99.90
23371;DHT22;11858;51.056;3.712;2022-12-24T15:28:48;12.40;99.90
23371;DHT22;11858;51.056;3.712;2022-12-24T15:31:20;12.30;99.90
23371;DHT22;11858;51.056;3.712;2022-12-24T15:33:47;12.30;99.90
23371;DHT22;11858;51.056;3.712;2022-12-24T15:36:14;12.40;99.90
23371;DHT22;11858;51.056;3.712;2022-12-24T15:38:45;12.20;99.90
23371;DHT22;11858;51.056;3.712;2022-12-24T15:41:19;12.20;99.90
23371;DHT22;11858;51.056;3.712;2022-12-24T15:43:47;12.30;99.90
23371;DHT22;11858;51.056;3.712;2022-12-24T15:46:22;12.10;99.90
23371;DHT22;11858;51.056;3.712;2022-12-24T15:48:49;12.10;99.90
23371;DHT22;11858;51.056;3.712;2022-12-24T15:51:29;12.10;99.90
23371;DHT22;11858;51.056;3.712;2022-12-24T15:54:04;12.10;99.90
23371;DHT22;11858;51.056;3.712;2022-12-24T16:01:41;12.20;99.90
23371;DHT22;11858;51.056;3.712;2022-12-24T16:04:27;12.20;99.90
23371;DHT22;11858;51.056;3.712;2022-12-24T16:06:58;12.20;99.90
23371;DHT22;11858;51.056;3.712;2022-12-24T16:09:43;12.30;99.90
23371;DHT22;11858;51.056;3.712;2022-12-24T16:12:20;12.20;99.90
23371;DHT22;11858;51.056;3.712;2022-12-24T16:14:58;12.30;99.90
23371;DHT22;11858;51.056;3.712;2022-12-24T16:17:27;12.30;99.90
23371;DHT22;11858;51.056;3.712;2022-12-24T16:19:57;12.40;99.90
23371;DHT22;11858;51.056;3.712;2022-12-24T16:22:25;12.20;99.90
23371;DHT22;11858;51.056;3.712;2022-12-24T16:24:58;12.10;99.90
23371;DHT22;11858;51.056;3.712;2022-12-24T16:27:23;12.00;99.90
23371;DHT22;11858;51.056;3.712;2022-12-24T16:29:49;12.00;99.90
23371;DHT22;11858;51.056;3.712;2022-12-24T16:34:52;11.90;99.90
23371;DHT22;11858;51.056;3.712;2022-12-24T16:37:18;11.80;99.90
23371;DHT22;11858;51.056;3.712;2022-12-24T16:39:45;11.70;99.90
23371;DHT22;11858;51.056;3.712;2022-12-24T16:42:11;11.60;99.90
23371;DHT22;11858;51.056;3.712;2022-12-24T16:44:55;11.60;99.90
23371;DHT22;11858;51.056;3.712;2022-12-24T16:47:25;11.50;99.90
23371;DHT22;11858;51.056;3.712;2022-12-24T16:49:51;11.40;99.90
23371;DHT22;11858;51.056;3.712;2022-12-24T16:52:20;11.50;99.90
23371;DHT22;11858;51.056;3.712;2022-12-24T16:54:47;11.50;99.90
23371;DHT22;11858;51.056;3.712;2022-12-24T16:57:13;11.40;99.90
23371;DHT22;11858;51.056;3.712;2022-12-24T16:59:39;11.50;99.90
23371;DHT22;11858;51.056;3.712;2022-12-24T17:02:06;11.40;99.90
23371;DHT22;11858;51.056;3.712;2022-12-24T17:04:32;11.40;99.90
23371;DHT22;11858;51.056;3.712;2022-12-24T17:06:58;11.50;99.90
23371;DHT22;11858;51.056;3.712;2022-12-24T17:09:24;11.40;99.90
23371;DHT22;11858;51.056;3.712;2022-12-24T17:11:50;11.20;99.90
23371;DHT22;11858;51.056;3.712;2022-12-24T17:14:16;11.20;99.90
23371;DHT22;11858;51.056;3.712;2022-12-24T17:16:42;11.20;99.90
23371;DHT22;11858;51.056;3.712;2022-12-24T17:19:07;11.10;99.90
23371;DHT22;11858;51.056;3.712;2022-12-24T17:21:34;11.20;99.90
23371;DHT22;11858;51.056;3.712;2022-12-24T17:23:59;11.20;99.90
23371;DHT22;11858;51.056;3.712;2022-12-24T17:26:25;11.10;99.90
23371;DHT22;11858;51.056;3.712;2022-12-24T17:28:55;11.10;99.90
23371;DHT22;11858;51.056;3.712;2022-12-24T17:31:22;11.10;99.90
23371;DHT22;11858;51.056;3.712;2022-12-24T17:33:49;11.10;99.90
23371;DHT22;11858;51.056;3.712;2022-12-24T17:36:15;11.00;99.90